Agar, South Dakota
Current Conditions -  °F | °C
As of 11:53 AM on Sunday 21 Dec 2014 (Local Time) from KPIR Reporting Station
Clear Clear  
Wind Chill: 22°   Ceiling: Unl
Heat Index: 30°   Visibility: 10mi
Dew Point: 26°   Wind: 9mph
Humidity: 85%   Direction: 120°ESE
Pressure: 29.5"   Gusts: NA
Location:  44.84°N, 100.07°W
Report Text: KPIR 211753Z AUTO 12008KT 10SM CLR M01/M03 A2950 RMK AO2 SLP009 I6000 T10111033 11011 21061 58029
Loading
Personal Weather Stations






























Interactive Weather Map New forecast layout! Learn more

10-Day Weather Forecast

Advertisements
Track Severe Weather on mobile